createdAt,value
2023-01-21T00:00:45.798Z,13.33
2023-01-21T00:03:21.324Z,16.35
2023-01-21T00:05:48.455Z,17.05
2023-01-21T00:08:15.738Z,16.10
2023-01-21T00:10:42.565Z,13.80
2023-01-21T00:13:09.683Z,16.07
2023-01-21T00:15:36.979Z,14.05
2023-01-21T00:18:04.187Z,13.95
2023-01-21T00:20:31.079Z,16.23
2023-01-21T00:22:58.210Z,13.25
2023-01-21T00:25:25.233Z,15.10
2023-01-21T00:27:52.339Z,14.18
2023-01-21T00:30:19.398Z,14.77
2023-01-21T00:32:47.651Z,12.18
2023-01-21T00:35:14.964Z,17.13
2023-01-21T00:37:42.111Z,15.87
2023-01-21T00:40:09.500Z,12.85
2023-01-21T00:42:36.666Z,14.02
2023-01-21T00:45:03.886Z,27.33
2023-01-21T00:47:30.964Z,26.88
2023-01-21T00:49:57.765Z,33.83
2023-01-21T00:52:24.940Z,31.80
2023-01-21T00:54:51.757Z,46.17
2023-01-21T00:57:18.891Z,46.03
2023-01-21T00:59:45.768Z,47.75
2023-01-21T01:02:12.864Z,50.33
2023-01-21T01:04:39.883Z,51.03
2023-01-21T01:07:07.003Z,53.97
2023-01-21T01:09:33.803Z,48.03
2023-01-21T01:12:00.901Z,46.97
2023-01-21T01:14:27.846Z,39.13
2023-01-21T01:16:54.971Z,46.95
2023-01-21T01:19:21.760Z,49.97
2023-01-21T01:21:48.951Z,50.58
2023-01-21T01:24:15.753Z,46.60
2023-01-21T01:26:45.983Z,42.27
2023-01-21T01:29:13.645Z,31.33
2023-01-21T01:31:40.992Z,33.03
2023-01-21T01:34:07.808Z,30.02
2023-01-21T01:36:35.020Z,24.10
2023-01-21T01:39:02.180Z,42.13
2023-01-21T01:41:30.314Z,43.75
2023-01-21T01:44:23.357Z,40.97
2023-01-21T01:46:50.945Z,42.75
2023-01-21T01:49:21.109Z,47.75
2023-01-21T01:52:01.010Z,47.73
2023-01-21T01:54:31.930Z,44.10
2023-01-21T01:57:01.871Z,39.95
2023-01-21T01:59:30.706Z,44.28
2023-01-21T02:02:00.984Z,44.80
2023-01-21T02:04:31.877Z,52.83
2023-01-21T02:07:00.185Z,54.15
2023-01-21T02:09:30.070Z,65.20
2023-01-21T02:11:59.563Z,56.78
2023-01-21T02:14:27.264Z,65.82
2023-01-21T02:17:17.707Z,58.70
2023-01-21T02:20:03.111Z,43.00
2023-01-21T02:22:56.659Z,47.83
2023-01-21T02:25:53.887Z,51.85
2023-01-21T02:29:03.278Z,50.30
2023-01-21T02:31:35.906Z,53.33
2023-01-21T02:34:40.859Z,51.40
2023-01-21T02:37:20.113Z,54.70
2023-01-21T02:40:21.078Z,50.53
2023-01-21T02:43:01.274Z,51.58
2023-01-21T02:45:43.379Z,51.83
2023-01-21T02:48:41.386Z,48.83
2023-01-21T02:51:08.621Z,53.25
2023-01-21T02:53:36.521Z,49.53
2023-01-21T02:56:09.515Z,53.60
2023-01-21T02:58:40.153Z,52.03
2023-01-21T03:01:37.823Z,56.60
2023-01-21T03:04:26.707Z,54.05
2023-01-21T03:07:09.482Z,44.72
2023-01-21T03:09:36.985Z,49.55
2023-01-21T03:12:23.174Z,48.47
2023-01-21T03:15:24.928Z,46.35
2023-01-21T03:18:04.907Z,47.40
2023-01-21T03:20:43.495Z,47.90
2023-01-21T03:23:16.501Z,44.35
2023-01-21T03:25:44.903Z,47.10
2023-01-21T03:28:15.736Z,47.75
2023-01-21T03:30:47.913Z,48.17
2023-01-21T03:33:17.428Z,45.08
2023-01-21T03:35:47.442Z,43.28
2023-01-21T03:38:36.329Z,55.33
2023-01-21T03:41:13.769Z,49.97
2023-01-21T03:43:41.201Z,44.45
2023-01-21T03:46:20.571Z,55.22
2023-01-21T03:48:57.323Z,53.00
2023-01-21T03:51:31.607Z,54.70
2023-01-21T03:54:00.069Z,51.03
2023-01-21T03:56:27.940Z,53.40
2023-01-21T03:58:55.424Z,51.88
2023-01-21T04:01:22.627Z,57.95
2023-01-21T04:03:49.791Z,46.37
2023-01-21T04:06:21.439Z,33.67
2023-01-21T04:08:49.471Z,38.67
2023-01-21T04:11:16.786Z,56.70
2023-01-21T04:13:43.922Z,52.33
2023-01-21T04:16:10.762Z,52.77
2023-01-21T04:18:37.930Z,49.20
2023-01-21T04:21:04.827Z,61.10
2023-01-21T04:23:32.019Z,56.30
2023-01-21T04:25:58.785Z,53.13
2023-01-21T04:28:25.891Z,56.43
2023-01-21T04:30:52.728Z,44.22
2023-01-21T04:33:20.572Z,49.63
2023-01-21T04:35:47.470Z,50.97
2023-01-21T04:38:15.906Z,55.58
2023-01-21T04:40:42.891Z,47.97
2023-01-21T04:43:10.039Z,60.40
2023-01-21T04:45:36.874Z,56.53
2023-01-21T04:48:04.098Z,50.22
2023-01-21T04:50:30.925Z,51.17
2023-01-21T04:52:58.041Z,47.20
2023-01-21T04:55:26.290Z,50.50
2023-01-21T04:57:53.703Z,45.17
2023-01-21T05:00:20.730Z,44.38
2023-01-21T05:02:47.902Z,44.92
2023-01-21T05:05:15.057Z,48.97
2023-01-21T05:07:42.233Z,47.88
2023-01-21T05:10:15.329Z,48.30
2023-01-21T05:12:42.651Z,46.05
2023-01-21T05:15:09.988Z,43.15
2023-01-21T05:17:37.427Z,39.50
2023-01-21T05:20:05.596Z,42.58
2023-01-21T05:22:32.734Z,42.08
2023-01-21T05:25:00.693Z,41.55
2023-01-21T05:27:28.233Z,42.72
2023-01-21T05:29:55.049Z,32.07
2023-01-21T05:32:22.216Z,32.97
2023-01-21T05:34:49.069Z,28.70
2023-01-21T05:37:16.229Z,33.30
2023-01-21T05:39:43.712Z,21.35
2023-01-21T05:42:10.861Z,41.80
2023-01-21T05:44:37.758Z,36.90
2023-01-21T05:47:04.949Z,38.35
2023-01-21T05:49:31.714Z,41.85
2023-01-21T05:51:58.841Z,38.25
2023-01-21T05:54:25.623Z,40.13
2023-01-21T05:56:52.763Z,39.58
2023-01-21T05:59:19.517Z,36.78
2023-01-21T06:01:46.687Z,39.28
2023-01-21T06:04:13.478Z,38.80
2023-01-21T06:06:40.769Z,34.87
2023-01-21T06:09:07.671Z,37.30
2023-01-21T06:11:34.838Z,37.00
2023-01-21T06:14:01.671Z,34.67
2023-01-21T06:16:28.843Z,31.23
2023-01-21T06:18:55.739Z,33.40
2023-01-21T06:21:22.862Z,28.48
2023-01-21T06:23:49.680Z,25.77
2023-01-21T06:26:17.066Z,24.77
2023-01-21T06:28:43.859Z,28.20
2023-01-21T06:31:11.157Z,23.23
2023-01-21T06:33:37.967Z,25.13
2023-01-21T06:36:05.523Z,24.85
2023-01-21T06:38:36.078Z,25.10
2023-01-21T06:41:03.791Z,24.38
2023-01-21T06:43:30.793Z,20.43
2023-01-21T06:45:58.265Z,19.08
2023-01-21T06:48:25.128Z,18.58
2023-01-21T06:50:52.299Z,17.10
2023-01-21T06:53:19.175Z,14.27
2023-01-21T06:55:48.131Z,27.37
2023-01-21T06:58:15.131Z,17.42
2023-01-21T07:00:42.418Z,27.42
2023-01-21T07:03:09.347Z,19.08
2023-01-21T07:05:36.550Z,20.90
2023-01-21T07:08:03.815Z,17.60
2023-01-21T07:10:31.199Z,17.77
2023-01-21T07:12:57.990Z,12.25
2023-01-21T07:15:25.205Z,10.13
2023-01-21T07:17:54.053Z,17.27
2023-01-21T07:20:22.734Z,11.43
2023-01-21T07:22:49.525Z,15.35
2023-01-21T07:25:16.982Z,15.68
2023-01-21T07:27:43.909Z,16.52
2023-01-21T07:30:17.960Z,16.55
2023-01-21T07:32:46.124Z,20.43
2023-01-21T07:35:13.619Z,13.15
2023-01-21T07:37:40.676Z,16.92
2023-01-21T07:40:08.687Z,20.52
2023-01-21T07:42:35.445Z,18.42
2023-01-21T07:45:04.718Z,23.90
2023-01-21T07:47:31.499Z,16.25
2023-01-21T07:49:58.716Z,22.25
2023-01-21T07:52:25.513Z,21.98
2023-01-21T07:54:52.933Z,25.08
2023-01-21T07:57:19.701Z,17.70
2023-01-21T07:59:46.913Z,16.40
2023-01-21T08:02:13.818Z,16.92
2023-01-21T08:04:41.093Z,15.80
2023-01-21T08:07:12.789Z,16.52
2023-01-21T08:09:40.855Z,15.50
2023-01-21T08:12:08.744Z,26.10
2023-01-21T08:14:35.913Z,25.70
2023-01-21T08:17:02.695Z,47.58
2023-01-21T08:19:29.864Z,249.02
2023-01-21T08:21:56.623Z,120.13
2023-01-21T08:24:23.801Z,54.03
2023-01-21T08:26:50.606Z,42.75
2023-01-21T08:29:17.767Z,29.65
2023-01-21T08:31:44.623Z,73.47
2023-01-21T08:34:11.749Z,47.67
2023-01-21T08:36:39.864Z,61.47
2023-01-21T08:39:07.098Z,48.50
2023-01-21T08:41:34.266Z,36.00
2023-01-21T08:44:01.388Z,34.58
2023-01-21T08:46:28.355Z,32.53
2023-01-21T08:48:55.539Z,24.58
2023-01-21T08:51:22.399Z,30.45
2023-01-21T08:53:50.512Z,42.03
2023-01-21T08:56:18.489Z,39.88
2023-01-21T08:58:45.874Z,41.23
2023-01-21T09:01:15.554Z,38.83
2023-01-21T09:03:42.727Z,35.67
2023-01-21T09:06:11.264Z,28.95
2023-01-21T09:08:39.409Z,25.10
2023-01-21T09:11:07.180Z,22.57
2023-01-21T09:13:37.572Z,26.65
2023-01-21T09:16:09.545Z,15.00
2023-01-21T09:18:37.570Z,15.50
2023-01-21T09:21:05.861Z,19.15
2023-01-21T09:26:28.422Z,13.23
2023-01-21T09:28:57.782Z,14.20
2023-01-21T09:31:26.539Z,12.68
2023-01-21T09:33:57.818Z,9.77
2023-01-21T09:36:27.150Z,9.73
2023-01-21T09:38:54.754Z,13.38
2023-01-21T09:41:24.195Z,11.15
2023-01-21T09:44:12.124Z,12.38
2023-01-21T09:46:48.254Z,13.32
2023-01-21T09:49:22.604Z,12.13
2023-01-21T09:52:01.636Z,13.80
2023-01-21T09:54:31.894Z,12.85
2023-01-21T09:57:26.789Z,16.50
2023-01-21T10:00:05.516Z,14.77
2023-01-21T10:02:45.732Z,17.10
2023-01-21T10:05:24.839Z,16.65
2023-01-21T10:07:54.534Z,16.83
2023-01-21T10:10:26.063Z,17.00
2023-01-21T10:13:04.984Z,17.83
2023-01-21T10:15:49.415Z,16.17
2023-01-21T10:18:25.008Z,15.27
2023-01-21T10:20:58.962Z,14.45
2023-01-21T10:23:47.543Z,16.58
2023-01-21T10:26:15.822Z,17.35
2023-01-21T10:28:51.998Z,15.00
2023-01-21T10:31:25.320Z,14.68
2023-01-21T10:33:53.061Z,14.43
2023-01-21T10:36:54.255Z,14.60
2023-01-21T10:39:47.548Z,17.40
2023-01-21T10:42:38.778Z,18.93
2023-01-21T10:45:33.825Z,15.52
2023-01-21T10:48:07.936Z,15.85
2023-01-21T10:50:47.018Z,17.33
2023-01-21T10:53:31.108Z,14.93
2023-01-21T10:56:03.893Z,14.97
2023-01-21T10:58:38.023Z,14.63
2023-01-21T11:01:09.920Z,15.98
2023-01-21T11:03:44.140Z,17.23
2023-01-21T11:06:13.959Z,17.75
2023-01-21T11:08:44.385Z,15.20
2023-01-21T11:11:12.597Z,15.10
2023-01-21T11:13:41.328Z,14.88
2023-01-21T11:16:08.903Z,17.08
2023-01-21T11:18:39.062Z,16.65
2023-01-21T11:21:25.527Z,14.87
2023-01-21T11:23:57.957Z,15.50
2023-01-21T11:26:36.918Z,18.02
2023-01-21T11:29:17.662Z,18.67
2023-01-21T11:31:48.529Z,19.17
2023-01-21T11:34:18.475Z,17.27
2023-01-21T11:37:03.068Z,18.13
2023-01-21T11:39:34.470Z,18.88
2023-01-21T11:42:18.214Z,18.98
2023-01-21T11:44:57.735Z,18.67
2023-01-21T11:47:46.638Z,20.23
2023-01-21T11:50:22.823Z,17.38
2023-01-21T11:53:10.398Z,17.52
2023-01-21T11:55:40.621Z,19.00
2023-01-21T11:58:29.356Z,20.98
2023-01-21T12:01:01.397Z,20.05
2023-01-21T12:03:42.566Z,16.97
2023-01-21T12:06:10.186Z,25.45
2023-01-21T12:08:39.971Z,18.48
2023-01-21T12:11:08.227Z,19.85
2023-01-21T12:13:59.685Z,20.80
2023-01-21T12:16:26.811Z,22.70
2023-01-21T12:18:56.690Z,22.27
2023-01-21T12:21:41.657Z,21.83
2023-01-21T12:24:30.531Z,20.73
2023-01-21T12:27:18.293Z,19.75
2023-01-21T12:29:51.524Z,24.00
2023-01-21T12:32:25.303Z,19.42
2023-01-21T12:35:17.840Z,18.60
2023-01-21T12:37:59.100Z,17.48
2023-01-21T12:40:32.732Z,19.05
2023-01-21T12:43:06.069Z,15.37
2023-01-21T12:45:41.464Z,24.23
2023-01-21T12:48:32.146Z,21.30
2023-01-21T12:51:07.053Z,17.90
2023-01-21T12:53:53.610Z,17.80
2023-01-21T12:56:42.056Z,17.13
2023-01-21T12:59:17.079Z,22.92
2023-01-21T13:02:05.708Z,19.90
2023-01-21T13:04:46.643Z,19.38
2023-01-21T13:07:25.747Z,18.42
2023-01-21T13:10:01.614Z,17.20
2023-01-21T13:12:31.180Z,20.85
2023-01-21T13:15:16.441Z,18.13
2023-01-21T13:17:48.818Z,26.55
2023-01-21T13:20:17.425Z,24.20
2023-01-21T13:22:52.782Z,16.83
2023-01-21T13:25:22.654Z,17.67
2023-01-21T13:28:27.791Z,18.77
2023-01-21T13:30:57.743Z,19.27
2023-01-21T13:33:24.679Z,19.52
2023-01-21T13:36:07.044Z,25.20
2023-01-21T13:39:08.565Z,26.80
2023-01-21T13:41:53.731Z,28.17
2023-01-21T13:45:08.394Z,23.88
2023-01-21T13:47:59.442Z,26.27
2023-01-21T13:51:30.901Z,25.80
2023-01-21T13:54:19.384Z,25.17
2023-01-21T13:57:18.593Z,23.67
2023-01-21T13:59:50.928Z,28.77
2023-01-21T14:02:41.931Z,27.50
2023-01-21T14:05:31.052Z,27.20
2023-01-21T14:08:01.852Z,26.08
2023-01-21T14:10:36.718Z,27.23
2023-01-21T14:13:22.342Z,24.08
2023-01-21T14:16:02.717Z,24.30
2023-01-21T14:18:39.069Z,20.93
2023-01-21T14:21:34.039Z,24.35
2023-01-21T14:24:29.655Z,20.60
2023-01-21T14:27:20.151Z,26.00
2023-01-21T14:30:05.827Z,22.00
2023-01-21T14:32:40.879Z,18.50
2023-01-21T14:35:41.443Z,25.98
2023-01-21T14:38:23.815Z,23.90
2023-01-21T14:41:02.601Z,21.33
2023-01-21T14:43:32.688Z,21.52
2023-01-21T14:46:00.987Z,26.60
2023-01-21T14:48:38.416Z,22.98
2023-01-21T14:51:08.050Z,20.83
2023-01-21T14:53:48.670Z,22.52
2023-01-21T14:56:25.551Z,24.58
2023-01-21T14:58:55.997Z,20.47
2023-01-21T15:01:38.145Z,22.80
2023-01-21T15:04:17.379Z,21.50
2023-01-21T15:06:44.220Z,21.35
2023-01-21T15:09:22.966Z,21.05
2023-01-21T15:11:55.875Z,21.40
2023-01-21T15:14:25.959Z,21.92
2023-01-21T15:16:53.134Z,23.88
2023-01-21T15:19:25.523Z,25.05
2023-01-21T15:22:18.869Z,22.33
2023-01-21T15:25:13.977Z,19.27
2023-01-21T15:27:40.869Z,20.75
2023-01-21T15:30:28.689Z,26.45
2023-01-21T15:32:56.207Z,25.08
2023-01-21T15:35:31.472Z,23.92
2023-01-21T15:38:12.213Z,22.47
2023-01-21T15:40:43.199Z,23.88
2023-01-21T15:43:37.651Z,20.90
2023-01-21T15:46:23.520Z,22.52
2023-01-21T15:49:05.753Z,25.02
2023-01-21T15:52:06.693Z,17.40
2023-01-21T15:55:00.527Z,20.38
2023-01-21T15:57:27.644Z,22.55
2023-01-21T16:00:13.048Z,23.15
2023-01-21T16:02:54.142Z,22.45
2023-01-21T16:05:32.841Z,20.60
2023-01-21T16:08:03.083Z,23.77
2023-01-21T16:10:45.170Z,20.95
2023-01-21T16:13:55.292Z,23.88
2023-01-21T16:16:24.802Z,20.92
2023-01-21T16:19:06.819Z,17.87
2023-01-21T16:21:36.990Z,17.83
2023-01-21T16:24:17.082Z,21.10
2023-01-21T16:26:43.917Z,18.42
2023-01-21T16:29:15.387Z,21.13
2023-01-21T16:31:51.655Z,20.93
2023-01-21T16:34:45.057Z,21.70
2023-01-21T16:37:18.482Z,19.85
2023-01-21T16:39:46.414Z,20.77
2023-01-21T16:42:33.444Z,16.77
2023-01-21T16:45:00.843Z,21.97
2023-01-21T16:47:34.921Z,18.30
2023-01-21T16:50:05.410Z,20.75
2023-01-21T16:52:32.555Z,15.77
2023-01-21T16:54:59.746Z,19.25
2023-01-21T16:57:31.978Z,16.90
2023-01-21T17:00:02.326Z,20.08
2023-01-21T17:02:33.514Z,17.80
2023-01-21T17:05:05.199Z,15.88
2023-01-21T17:07:38.309Z,17.40
2023-01-21T17:10:23.297Z,23.17
2023-01-21T17:13:02.133Z,19.67
2023-01-21T17:15:38.963Z,16.55
2023-01-21T17:18:10.141Z,19.02
2023-01-21T17:20:41.161Z,18.40
2023-01-21T17:23:33.300Z,16.60
2023-01-21T17:26:09.687Z,14.80
2023-01-21T17:28:45.609Z,23.33
2023-01-21T17:31:15.910Z,21.92
2023-01-21T17:33:43.919Z,21.35
2023-01-21T17:36:16.322Z,18.87
2023-01-21T17:38:45.495Z,18.33
2023-01-21T17:41:29.515Z,20.52
2023-01-21T17:43:56.867Z,20.75
2023-01-21T17:46:24.854Z,21.80
2023-01-21T17:48:56.030Z,16.10
2023-01-21T17:51:29.686Z,20.63
2023-01-21T17:54:00.754Z,22.92
2023-01-21T17:56:40.166Z,20.90
2023-01-21T17:59:26.243Z,21.55
2023-01-21T18:01:55.151Z,18.67
2023-01-21T18:04:23.059Z,16.33
2023-01-21T18:06:52.225Z,18.42
2023-01-21T18:09:20.337Z,18.05
2023-01-21T18:11:53.148Z,19.92
2023-01-21T18:14:22.306Z,19.43
2023-01-21T18:16:49.674Z,20.05
2023-01-21T18:19:37.794Z,18.67
2023-01-21T18:22:07.012Z,17.55
2023-01-21T18:24:35.597Z,17.70
2023-01-21T18:27:03.109Z,17.63
2023-01-21T18:29:31.006Z,19.67
2023-01-21T18:31:58.548Z,18.27
2023-01-21T18:34:25.455Z,20.27
2023-01-21T18:36:52.891Z,16.85
2023-01-21T18:39:20.440Z,20.43
2023-01-21T18:41:47.997Z,18.80
2023-01-21T18:44:16.247Z,20.65
2023-01-21T18:46:43.752Z,18.48
2023-01-21T18:49:20.725Z,17.00
2023-01-21T18:51:48.118Z,18.27
2023-01-21T18:54:16.423Z,20.73
2023-01-21T18:56:44.717Z,19.35
2023-01-21T18:59:17.243Z,16.50
2023-01-21T19:01:45.131Z,15.90
2023-01-21T19:04:15.825Z,17.13
2023-01-21T19:06:43.050Z,16.33
2023-01-21T19:09:27.626Z,16.85
2023-01-21T19:11:54.737Z,16.73
2023-01-21T19:14:21.622Z,16.10
2023-01-21T19:16:48.755Z,16.23
2023-01-21T19:19:19.144Z,18.95
2023-01-21T19:21:46.764Z,15.02
2023-01-21T19:24:13.555Z,15.52
2023-01-21T19:26:40.871Z,14.88
2023-01-21T19:29:15.152Z,14.73
2023-01-21T19:31:42.661Z,11.25
2023-01-21T19:34:10.281Z,14.50
2023-01-21T19:36:38.800Z,16.25
2023-01-21T19:39:14.298Z,15.43
2023-01-21T19:41:41.504Z,16.30
2023-01-21T19:44:08.290Z,16.65
2023-01-21T19:46:35.443Z,14.40
2023-01-21T19:49:11.345Z,13.82
2023-01-21T19:51:38.477Z,14.40
2023-01-21T19:54:05.457Z,18.00
2023-01-21T19:56:32.628Z,17.70
2023-01-21T19:58:59.768Z,16.48
2023-01-21T20:01:26.912Z,13.18
2023-01-21T20:04:00.047Z,15.63
2023-01-21T20:06:33.469Z,14.15
2023-01-21T20:09:03.569Z,18.67
2023-01-21T20:11:30.788Z,15.68
2023-01-21T20:13:57.637Z,13.00
2023-01-21T20:16:26.509Z,11.38
2023-01-21T20:18:55.339Z,16.40
2023-01-21T20:21:22.489Z,14.23
2023-01-21T20:23:49.320Z,18.27
2023-01-21T20:26:19.617Z,10.93
2023-01-21T20:28:51.463Z,13.02
2023-01-21T20:31:21.179Z,13.40
2023-01-21T20:33:48.027Z,11.00
2023-01-21T20:36:23.807Z,12.47
2023-01-21T20:38:51.216Z,14.63
2023-01-21T20:41:18.824Z,12.85
2023-01-21T20:43:45.957Z,12.15
2023-01-21T20:46:19.815Z,15.07
2023-01-21T20:48:46.851Z,11.37
2023-01-21T20:51:14.321Z,14.68
2023-01-21T20:53:41.279Z,12.27
2023-01-21T20:56:34.447Z,11.85
2023-01-21T20:59:01.264Z,14.15
2023-01-21T21:01:29.252Z,13.37
2023-01-21T21:03:56.246Z,12.40
2023-01-21T21:06:26.742Z,13.80
2023-01-21T21:08:54.357Z,9.40
2023-01-21T21:11:21.702Z,10.52
2023-01-21T21:13:52.559Z,12.80
2023-01-21T21:16:24.341Z,13.40
2023-01-21T21:18:52.911Z,12.25
2023-01-21T21:21:24.371Z,10.80
2023-01-21T21:23:52.779Z,14.88
2023-01-21T21:26:23.689Z,12.55
2023-01-21T21:28:54.930Z,10.83
2023-01-21T21:31:23.056Z,11.88
2023-01-21T21:33:50.661Z,11.30
2023-01-21T21:36:20.717Z,11.50
2023-01-21T21:38:49.024Z,11.18
2023-01-21T21:41:37.107Z,12.13
2023-01-21T21:44:08.680Z,12.27
2023-01-21T21:46:57.779Z,12.30
2023-01-21T21:49:24.764Z,11.13
2023-01-21T21:51:52.255Z,13.05
2023-01-21T21:54:19.395Z,11.07
2023-01-21T21:56:47.277Z,14.55
2023-01-21T21:59:14.632Z,11.93
2023-01-21T22:01:42.973Z,16.50
2023-01-21T22:04:12.752Z,16.60
2023-01-21T22:06:40.250Z,15.00
2023-01-21T22:09:07.570Z,13.30
2023-01-21T22:11:34.914Z,10.95
2023-01-21T22:14:04.126Z,14.32
2023-01-21T22:16:32.341Z,13.65
2023-01-21T22:19:00.614Z,16.70
2023-01-21T22:21:32.938Z,11.87
2023-01-21T22:24:01.582Z,12.75
2023-01-21T22:26:29.874Z,12.68
2023-01-21T22:28:56.756Z,13.75
2023-01-21T22:31:27.735Z,13.02
2023-01-21T22:33:55.278Z,13.03
2023-01-21T22:36:24.685Z,17.67
2023-01-21T22:38:52.799Z,11.65
2023-01-21T22:41:22.265Z,15.60
2023-01-21T22:43:50.056Z,14.18
2023-01-21T22:46:20.554Z,13.57
2023-01-21T22:48:48.115Z,12.68
2023-01-21T22:51:17.515Z,13.77
2023-01-21T22:53:44.540Z,13.27
2023-01-21T22:56:13.815Z,14.93
2023-01-21T22:58:41.074Z,12.57
2023-01-21T23:01:09.465Z,11.52
2023-01-21T23:03:37.214Z,15.77
2023-01-21T23:06:06.714Z,13.63
2023-01-21T23:08:36.343Z,13.20
2023-01-21T23:11:05.375Z,13.47
2023-01-21T23:13:33.582Z,13.35
2023-01-21T23:16:00.955Z,12.50
2023-01-21T23:18:29.517Z,17.55
2023-01-21T23:20:56.873Z,13.35
2023-01-21T23:23:24.827Z,12.77
2023-01-21T23:25:52.094Z,11.55
2023-01-21T23:28:18.959Z,10.57
2023-01-21T23:30:46.352Z,11.23
2023-01-21T23:33:13.643Z,10.40
2023-01-21T23:35:40.796Z,12.47
2023-01-21T23:38:07.550Z,11.75
2023-01-21T23:40:34.660Z,11.48
2023-01-21T23:43:01.760Z,13.20
2023-01-21T23:45:28.893Z,11.65
2023-01-21T23:47:55.679Z,36.33
2023-01-21T23:50:22.823Z,32.20
2023-01-21T23:52:49.784Z,16.42
2023-01-21T23:55:16.956Z,14.13
2023-01-21T23:57:43.744Z,14.50
